sensor_id;sensor_type;location;lat;lon;timestamp;temperature;humidity
58554;DHT22;48119;53.218;6.576;2022-10-13T00:00:45;13.90;92.70
58554;DHT22;48119;53.218;6.576;2022-10-13T00:03:11;13.90;92.70
58554;DHT22;48119;53.218;6.576;2022-10-13T00:05:45;13.90;92.70
58554;DHT22;48119;53.218;6.576;2022-10-13T00:08:11;13.90;93.10
58554;DHT22;48119;53.218;6.576;2022-10-13T00:10:39;13.90;92.80
58554;DHT22;48119;53.218;6.576;2022-10-13T00:13:07;13.80;92.80
58554;DHT22;48119;53.218;6.576;2022-10-13T00:15:37;13.80;92.80
58554;DHT22;48119;53.218;6.576;2022-10-13T00:18:03;13.90;92.90
58554;DHT22;48119;53.218;6.576;2022-10-13T00:20:31;13.90;92.90
58554;DHT22;48119;53.218;6.576;2022-10-13T00:22:58;13.80;92.90
58554;DHT22;48119;53.218;6.576;2022-10-13T00:25:30;13.80;92.90
58554;DHT22;48119;53.218;6.576;2022-10-13T00:27:56;13.80;93.00
58554;DHT22;48119;53.218;6.576;2022-10-13T00:30:22;13.80;93.00
58554;DHT22;48119;53.218;6.576;2022-10-13T00:32:48;13.80;93.00
58554;DHT22;48119;53.218;6.576;2022-10-13T00:35:14;13.80;93.00
58554;DHT22;48119;53.218;6.576;2022-10-13T00:37:40;13.80;93.10
58554;DHT22;48119;53.218;6.576;2022-10-13T00:40:06;13.80;93.00
58554;DHT22;48119;53.218;6.576;2022-10-13T00:42:32;13.80;93.10
58554;DHT22;48119;53.218;6.576;2022-10-13T00:47:49;13.70;93.10
58554;DHT22;48119;53.218;6.576;2022-10-13T00:50:20;13.80;93.10
58554;DHT22;48119;53.218;6.576;2022-10-13T00:52:49;13.80;93.20
58554;DHT22;48119;53.218;6.576;2022-10-13T00:55:18;13.80;93.20
58554;DHT22;48119;53.218;6.576;2022-10-13T00:57:50;13.80;93.20
58554;DHT22;48119;53.218;6.576;2022-10-13T01:00:24;13.80;93.20
58554;DHT22;48119;53.218;6.576;2022-10-13T01:02:51;13.80;93.20
58554;DHT22;48119;53.218;6.576;2022-10-13T01:05:19;13.80;93.20
58554;DHT22;48119;53.218;6.576;2022-10-13T01:07:48;13.80;93.20
58554;DHT22;48119;53.218;6.576;2022-10-13T01:10:23;13.80;93.20
58554;DHT22;48119;53.218;6.576;2022-10-13T01:18:59;13.80;93.30
58554;DHT22;48119;53.218;6.576;2022-10-13T01:21:32;13.80;93.30
58554;DHT22;48119;53.218;6.576;2022-10-13T01:26:53;13.80;93.30
58554;DHT22;48119;53.218;6.576;2022-10-13T01:32:28;13.70;93.40
58554;DHT22;48119;53.218;6.576;2022-10-13T01:35:07;13.80;93.40
58554;DHT22;48119;53.218;6.576;2022-10-13T01:40:35;13.80;93.70
58554;DHT22;48119;53.218;6.576;2022-10-13T01:43:22;13.80;93.40
58554;DHT22;48119;53.218;6.576;2022-10-13T01:46:20;13.80;93.40
58554;DHT22;48119;53.218;6.576;2022-10-13T01:48:46;13.80;93.30
58554;DHT22;48119;53.218;6.576;2022-10-13T01:51:15;13.80;93.40
58554;DHT22;48119;53.218;6.576;2022-10-13T01:53:44;13.80;93.40
58554;DHT22;48119;53.218;6.576;2022-10-13T01:56:10;13.80;93.40
58554;DHT22;48119;53.218;6.576;2022-10-13T01:58:37;13.80;93.30
58554;DHT22;48119;53.218;6.576;2022-10-13T02:07:02;13.80;93.30
58554;DHT22;48119;53.218;6.576;2022-10-13T02:10:19;13.80;93.40
58554;DHT22;48119;53.218;6.576;2022-10-13T02:12:31;13.80;93.50
58554;DHT22;48119;53.218;6.576;2022-10-13T02:14:59;13.80;93.60
58554;DHT22;48119;53.218;6.576;2022-10-13T02:17:31;13.80;93.80
58554;DHT22;48119;53.218;6.576;2022-10-13T02:20:07;13.80;93.70
58554;DHT22;48119;53.218;6.576;2022-10-13T02:22:37;13.80;93.70
58554;DHT22;48119;53.218;6.576;2022-10-13T02:25:07;13.80;93.80
58554;DHT22;48119;53.218;6.576;2022-10-13T02:27:33;13.80;93.80
58554;DHT22;48119;53.218;6.576;2022-10-13T02:29:58;13.70;93.80
58554;DHT22;48119;53.218;6.576;2022-10-13T02:32:25;13.70;93.80
58554;DHT22;48119;53.218;6.576;2022-10-13T02:34:50;13.70;93.90
58554;DHT22;48119;53.218;6.576;2022-10-13T02:37:16;13.70;93.90
58554;DHT22;48119;53.218;6.576;2022-10-13T02:39:42;13.70;94.00
58554;DHT22;48119;53.218;6.576;2022-10-13T02:42:09;13.70;94.10
58554;DHT22;48119;53.218;6.576;2022-10-13T02:44:36;13.70;94.10
58554;DHT22;48119;53.218;6.576;2022-10-13T02:47:05;13.70;94.20
58554;DHT22;48119;53.218;6.576;2022-10-13T02:49:32;13.70;94.30
58554;DHT22;48119;53.218;6.576;2022-10-13T02:51:58;13.70;94.30
58554;DHT22;48119;53.218;6.576;2022-10-13T02:54:29;13.60;94.30
58554;DHT22;48119;53.218;6.576;2022-10-13T02:56:56;13.70;94.30
58554;DHT22;48119;53.218;6.576;2022-10-13T02:59:22;13.60;94.30
58554;DHT22;48119;53.218;6.576;2022-10-13T03:01:48;13.60;94.30
58554;DHT22;48119;53.218;6.576;2022-10-13T03:04:13;13.70;94.40
58554;DHT22;48119;53.218;6.576;2022-10-13T03:06:40;13.60;94.40
58554;DHT22;48119;53.218;6.576;2022-10-13T03:09:07;13.60;94.40
58554;DHT22;48119;53.218;6.576;2022-10-13T03:11:33;13.60;94.40
58554;DHT22;48119;53.218;6.576;2022-10-13T03:13:59;13.70;94.40
58554;DHT22;48119;53.218;6.576;2022-10-13T03:16:24;13.60;94.40
58554;DHT22;48119;53.218;6.576;2022-10-13T03:18:50;13.60;94.40
58554;DHT22;48119;53.218;6.576;2022-10-13T03:21:16;13.60;94.50
58554;DHT22;48119;53.218;6.576;2022-10-13T03:23:45;13.60;94.50
58554;DHT22;48119;53.218;6.576;2022-10-13T03:26:11;13.60;94.60
58554;DHT22;48119;53.218;6.576;2022-10-13T03:28:36;13.60;94.60
58554;DHT22;48119;53.218;6.576;2022-10-13T03:31:04;13.60;94.70
58554;DHT22;48119;53.218;6.576;2022-10-13T03:33:30;13.60;94.80
58554;DHT22;48119;53.218;6.576;2022-10-13T03:36:01;13.60;94.90
58554;DHT22;48119;53.218;6.576;2022-10-13T03:38:31;13.60;94.80
58554;DHT22;48119;53.218;6.576;2022-10-13T03:41:07;13.60;94.80
58554;DHT22;48119;53.218;6.576;2022-10-13T03:43:34;13.60;94.90
58554;DHT22;48119;53.218;6.576;2022-10-13T03:46:01;13.60;94.90
58554;DHT22;48119;53.218;6.576;2022-10-13T03:48:28;13.60;95.00
58554;DHT22;48119;53.218;6.576;2022-10-13T03:50:54;13.60;95.10
58554;DHT22;48119;53.218;6.576;2022-10-13T03:53:20;13.60;95.20
58554;DHT22;48119;53.218;6.576;2022-10-13T03:55:51;13.60;95.30
58554;DHT22;48119;53.218;6.576;2022-10-13T03:58:17;13.60;95.30
58554;DHT22;48119;53.218;6.576;2022-10-13T04:00:43;13.60;95.60
58554;DHT22;48119;53.218;6.576;2022-10-13T04:03:10;13.60;95.60
58554;DHT22;48119;53.218;6.576;2022-10-13T04:05:36;13.60;95.60
58554;DHT22;48119;53.218;6.576;2022-10-13T04:08:02;13.60;95.60
58554;DHT22;48119;53.218;6.576;2022-10-13T04:10:28;13.60;95.60
58554;DHT22;48119;53.218;6.576;2022-10-13T04:12:54;13.60;95.80
58554;DHT22;48119;53.218;6.576;2022-10-13T04:15:20;13.60;95.80
58554;DHT22;48119;53.218;6.576;2022-10-13T04:17:46;13.60;95.80
58554;DHT22;48119;53.218;6.576;2022-10-13T04:20:11;13.60;96.00
58554;DHT22;48119;53.218;6.576;2022-10-13T04:22:37;13.50;96.10
58554;DHT22;48119;53.218;6.576;2022-10-13T04:25:04;13.50;96.10
58554;DHT22;48119;53.218;6.576;2022-10-13T04:27:30;13.50;96.10
58554;DHT22;48119;53.218;6.576;2022-10-13T04:29:57;13.50;96.20
58554;DHT22;48119;53.218;6.576;2022-10-13T04:32:23;13.50;96.20
58554;DHT22;48119;53.218;6.576;2022-10-13T04:34:49;13.50;96.20
58554;DHT22;48119;53.218;6.576;2022-10-13T04:37:18;13.50;96.30
58554;DHT22;48119;53.218;6.576;2022-10-13T04:39:44;13.50;96.30
58554;DHT22;48119;53.218;6.576;2022-10-13T04:42:10;13.50;96.40
58554;DHT22;48119;53.218;6.576;2022-10-13T04:44:35;13.50;96.40
58554;DHT22;48119;53.218;6.576;2022-10-13T04:47:02;13.50;96.50
58554;DHT22;48119;53.218;6.576;2022-10-13T04:49:28;13.50;96.60
58554;DHT22;48119;53.218;6.576;2022-10-13T04:51:54;13.50;96.60
58554;DHT22;48119;53.218;6.576;2022-10-13T04:54:20;13.40;96.60
58554;DHT22;48119;53.218;6.576;2022-10-13T04:56:46;13.50;96.60
58554;DHT22;48119;53.218;6.576;2022-10-13T04:59:12;13.50;96.70
58554;DHT22;48119;53.218;6.576;2022-10-13T05:01:38;13.50;96.70
58554;DHT22;48119;53.218;6.576;2022-10-13T05:04:04;13.50;96.70
58554;DHT22;48119;53.218;6.576;2022-10-13T05:06:32;13.50;96.80
58554;DHT22;48119;53.218;6.576;2022-10-13T05:08:59;13.50;96.80
58554;DHT22;48119;53.218;6.576;2022-10-13T05:11:26;13.50;96.80
58554;DHT22;48119;53.218;6.576;2022-10-13T05:13:52;13.50;96.90
58554;DHT22;48119;53.218;6.576;2022-10-13T05:16:20;13.50;96.90
58554;DHT22;48119;53.218;6.576;2022-10-13T05:18:47;13.50;96.90
58554;DHT22;48119;53.218;6.576;2022-10-13T05:21:20;13.50;96.90
58554;DHT22;48119;53.218;6.576;2022-10-13T05:23:47;13.50;97.00
58554;DHT22;48119;53.218;6.576;2022-10-13T05:26:15;13.50;97.00
58554;DHT22;48119;53.218;6.576;2022-10-13T05:28:43;13.50;97.10
58554;DHT22;48119;53.218;6.576;2022-10-13T05:33:34;13.50;97.00
58554;DHT22;48119;53.218;6.576;2022-10-13T05:36:12;13.50;97.10
58554;DHT22;48119;53.218;6.576;2022-10-13T05:38:38;13.50;97.20
58554;DHT22;48119;53.218;6.576;2022-10-13T05:41:06;13.50;97.20
58554;DHT22;48119;53.218;6.576;2022-10-13T05:43:32;13.50;97.20
58554;DHT22;48119;53.218;6.576;2022-10-13T05:45:59;13.50;97.30
58554;DHT22;48119;53.218;6.576;2022-10-13T05:48:26;13.50;97.30
58554;DHT22;48119;53.218;6.576;2022-10-13T05:50:52;13.50;97.40
58554;DHT22;48119;53.218;6.576;2022-10-13T05:53:18;13.50;97.50
58554;DHT22;48119;53.218;6.576;2022-10-13T05:55:44;13.50;97.50
58554;DHT22;48119;53.218;6.576;2022-10-13T05:58:10;13.50;97.50
58554;DHT22;48119;53.218;6.576;2022-10-13T06:00:36;13.50;97.50
58554;DHT22;48119;53.218;6.576;2022-10-13T06:03:22;13.50;97.50
58554;DHT22;48119;53.218;6.576;2022-10-13T06:05:48;13.50;97.70
58554;DHT22;48119;53.218;6.576;2022-10-13T06:08:14;13.50;97.60
58554;DHT22;48119;53.218;6.576;2022-10-13T06:10:41;13.50;97.60
58554;DHT22;48119;53.218;6.576;2022-10-13T06:13:08;13.50;98.00
58554;DHT22;48119;53.218;6.576;2022-10-13T06:15:34;13.50;97.70
58554;DHT22;48119;53.218;6.576;2022-10-13T06:18:00;13.50;97.80
58554;DHT22;48119;53.218;6.576;2022-10-13T06:20:26;13.50;97.80
58554;DHT22;48119;53.218;6.576;2022-10-13T06:22:56;13.50;97.80
58554;DHT22;48119;53.218;6.576;2022-10-13T06:25:22;13.50;97.90
58554;DHT22;48119;53.218;6.576;2022-10-13T06:27:48;13.50;97.90
58554;DHT22;48119;53.218;6.576;2022-10-13T06:30:13;13.50;97.90
58554;DHT22;48119;53.218;6.576;2022-10-13T06:32:39;13.60;97.90
58554;DHT22;48119;53.218;6.576;2022-10-13T06:35:05;13.60;98.20
58554;DHT22;48119;53.218;6.576;2022-10-13T06:37:31;13.60;97.90
58554;DHT22;48119;53.218;6.576;2022-10-13T06:39:57;13.60;97.90
58554;DHT22;48119;53.218;6.576;2022-10-13T06:42:23;13.60;97.90
58554;DHT22;48119;53.218;6.576;2022-10-13T06:44:48;13.60;97.90
58554;DHT22;48119;53.218;6.576;2022-10-13T06:47:15;13.60;98.00
58554;DHT22;48119;53.218;6.576;2022-10-13T06:49:40;13.60;98.00
58554;DHT22;48119;53.218;6.576;2022-10-13T06:52:06;13.60;98.00
58554;DHT22;48119;53.218;6.576;2022-10-13T06:54:33;13.60;98.20
58554;DHT22;48119;53.218;6.576;2022-10-13T06:56:59;13.60;98.20
58554;DHT22;48119;53.218;6.576;2022-10-13T06:59:24;13.60;98.20
58554;DHT22;48119;53.218;6.576;2022-10-13T07:01:52;13.60;98.30
58554;DHT22;48119;53.218;6.576;2022-10-13T07:04:18;13.60;98.30
58554;DHT22;48119;53.218;6.576;2022-10-13T07:06:44;13.60;98.30
58554;DHT22;48119;53.218;6.576;2022-10-13T07:09:10;13.70;98.30
58554;DHT22;48119;53.218;6.576;2022-10-13T07:11:36;13.70;98.30
58554;DHT22;48119;53.218;6.576;2022-10-13T07:14:02;13.70;98.70
58554;DHT22;48119;53.218;6.576;2022-10-13T07:16:27;13.70;98.40
58554;DHT22;48119;53.218;6.576;2022-10-13T07:18:53;13.70;98.40
58554;DHT22;48119;53.218;6.576;2022-10-13T07:21:19;13.70;98.40
58554;DHT22;48119;53.218;6.576;2022-10-13T07:23:44;13.70;98.40
58554;DHT22;48119;53.218;6.576;2022-10-13T07:26:13;13.70;98.40
58554;DHT22;48119;53.218;6.576;2022-10-13T07:28:41;13.70;98.40
58554;DHT22;48119;53.218;6.576;2022-10-13T07:31:08;13.80;98.50
58554;DHT22;48119;53.218;6.576;2022-10-13T07:33:36;13.80;98.50
58554;DHT22;48119;53.218;6.576;2022-10-13T07:36:05;13.80;98.60
58554;DHT22;48119;53.218;6.576;2022-10-13T07:38:32;13.80;98.60
58554;DHT22;48119;53.218;6.576;2022-10-13T07:41:02;13.80;98.70
58554;DHT22;48119;53.218;6.576;2022-10-13T07:43:29;13.90;98.70
58554;DHT22;48119;53.218;6.576;2022-10-13T07:45:57;13.90;98.70
58554;DHT22;48119;53.218;6.576;2022-10-13T07:48:24;13.90;98.70
58554;DHT22;48119;53.218;6.576;2022-10-13T07:50:50;13.90;98.70
58554;DHT22;48119;53.218;6.576;2022-10-13T07:53:16;13.90;98.70
58554;DHT22;48119;53.218;6.576;2022-10-13T07:55:42;13.90;98.80
58554;DHT22;48119;53.218;6.576;2022-10-13T07:58:08;13.90;98.80
58554;DHT22;48119;53.218;6.576;2022-10-13T08:00:34;13.90;98.80
58554;DHT22;48119;53.218;6.576;2022-10-13T08:03:00;14.00;98.80
58554;DHT22;48119;53.218;6.576;2022-10-13T08:05:26;14.00;98.90
58554;DHT22;48119;53.218;6.576;2022-10-13T08:07:52;14.00;98.90
58554;DHT22;48119;53.218;6.576;2022-10-13T08:10:18;14.00;98.90
58554;DHT22;48119;53.218;6.576;2022-10-13T08:12:44;14.00;99.00
58554;DHT22;48119;53.218;6.576;2022-10-13T08:15:10;14.00;99.00
58554;DHT22;48119;53.218;6.576;2022-10-13T08:17:35;14.00;99.10
58554;DHT22;48119;53.218;6.576;2022-10-13T08:20:03;14.00;99.10
58554;DHT22;48119;53.218;6.576;2022-10-13T08:22:29;14.10;99.20
58554;DHT22;48119;53.218;6.576;2022-10-13T08:24:55;14.10;99.10
58554;DHT22;48119;53.218;6.576;2022-10-13T08:27:23;14.10;99.10
58554;DHT22;48119;53.218;6.576;2022-10-13T08:29:49;14.10;99.10
58554;DHT22;48119;53.218;6.576;2022-10-13T08:32:15;14.10;99.10
58554;DHT22;48119;53.218;6.576;2022-10-13T08:34:41;14.10;99.10
58554;DHT22;48119;53.218;6.576;2022-10-13T08:37:14;14.10;99.10
58554;DHT22;48119;53.218;6.576;2022-10-13T08:39:40;14.10;99.20
58554;DHT22;48119;53.218;6.576;2022-10-13T08:42:17;14.10;99.20
58554;DHT22;48119;53.218;6.576;2022-10-13T08:44:59;14.10;99.20
58554;DHT22;48119;53.218;6.576;2022-10-13T08:49:57;14.10;99.20
58554;DHT22;48119;53.218;6.576;2022-10-13T08:52:26;14.10;99.30
58554;DHT22;48119;53.218;6.576;2022-10-13T08:54:54;14.10;99.30
58554;DHT22;48119;53.218;6.576;2022-10-13T08:57:21;14.20;99.30
58554;DHT22;48119;53.218;6.576;2022-10-13T08:59:47;14.10;99.30
58554;DHT22;48119;53.218;6.576;2022-10-13T09:02:28;14.10;99.40
58554;DHT22;48119;53.218;6.576;2022-10-13T09:04:56;14.10;99.50
58554;DHT22;48119;53.218;6.576;2022-10-13T09:07:26;14.20;99.50
58554;DHT22;48119;53.218;6.576;2022-10-13T09:09:54;14.20;99.60
58554;DHT22;48119;53.218;6.576;2022-10-13T09:12:21;14.20;99.60
58554;DHT22;48119;53.218;6.576;2022-10-13T09:15:07;14.20;99.60
58554;DHT22;48119;53.218;6.576;2022-10-13T09:17:36;14.30;99.70
58554;DHT22;48119;53.218;6.576;2022-10-13T09:20:24;14.20;99.60
58554;DHT22;48119;53.218;6.576;2022-10-13T09:23:04;14.30;99.70
58554;DHT22;48119;53.218;6.576;2022-10-13T09:25:41;14.30;99.80
58554;DHT22;48119;53.218;6.576;2022-10-13T09:28:27;14.30;99.80
58554;DHT22;48119;53.218;6.576;2022-10-13T09:31:03;14.30;99.90
58554;DHT22;48119;53.218;6.576;2022-10-13T09:33:34;14.30;99.90
58554;DHT22;48119;53.218;6.576;2022-10-13T09:38:31;14.40;99.90
58554;DHT22;48119;53.218;6.576;2022-10-13T09:46:20;14.30;99.90
58554;DHT22;48119;53.218;6.576;2022-10-13T09:48:52;14.40;99.90
58554;DHT22;48119;53.218;6.576;2022-10-13T09:51:41;14.40;99.90
58554;DHT22;48119;53.218;6.576;2022-10-13T10:00:10;14.40;99.90
58554;DHT22;48119;53.218;6.576;2022-10-13T10:05:20;14.50;99.90
58554;DHT22;48119;53.218;6.576;2022-10-13T10:07:47;14.50;99.90
58554;DHT22;48119;53.218;6.576;2022-10-13T10:12:54;14.50;99.90
58554;DHT22;48119;53.218;6.576;2022-10-13T10:15:25;14.50;99.90
58554;DHT22;48119;53.218;6.576;2022-10-13T10:17:59;14.50;99.90
58554;DHT22;48119;53.218;6.576;2022-10-13T10:26:14;14.60;99.90
58554;DHT22;48119;53.218;6.576;2022-10-13T10:45:50;14.70;99.90
58554;DHT22;48119;53.218;6.576;2022-10-13T10:48:24;14.70;99.90
58554;DHT22;48119;53.218;6.576;2022-10-13T10:50:52;14.70;99.90
58554;DHT22;48119;53.218;6.576;2022-10-13T10:53:32;14.70;99.90
58554;DHT22;48119;53.218;6.576;2022-10-13T10:56:06;14.70;99.90
58554;DHT22;48119;53.218;6.576;2022-10-13T11:06:55;14.70;99.90
58554;DHT22;48119;53.218;6.576;2022-10-13T11:10:00;14.70;99.90
58554;DHT22;48119;53.218;6.576;2022-10-13T11:15:27;14.70;99.90
58554;DHT22;48119;53.218;6.576;2022-10-13T11:17:56;14.70;99.90
58554;DHT22;48119;53.218;6.576;2022-10-13T11:25:42;14.80;99.90
58554;DHT22;48119;53.218;6.576;2022-10-13T11:30:53;14.70;99.90
58554;DHT22;48119;53.218;6.576;2022-10-13T11:44:47;14.80;99.90
58554;DHT22;48119;53.218;6.576;2022-10-13T11:53:22;14.80;99.90
58554;DHT22;48119;53.218;6.576;2022-10-13T11:58:24;14.90;99.90
58554;DHT22;48119;53.218;6.576;2022-10-13T12:00:58;14.90;99.90
58554;DHT22;48119;53.218;6.576;2022-10-13T12:03:38;14.90;99.90
58554;DHT22;48119;53.218;6.576;2022-10-13T12:06:31;14.90;99.90
58554;DHT22;48119;53.218;6.576;2022-10-13T12:09:16;15.00;99.90
58554;DHT22;48119;53.218;6.576;2022-10-13T12:12:16;15.00;99.90
58554;DHT22;48119;53.218;6.576;2022-10-13T12:14:45;15.00;99.90
58554;DHT22;48119;53.218;6.576;2022-10-13T12:17:28;15.00;99.90
58554;DHT22;48119;53.218;6.576;2022-10-13T12:20:01;14.90;99.90
58554;DHT22;48119;53.218;6.576;2022-10-13T12:22:29;15.00;99.90
58554;DHT22;48119;53.218;6.576;2022-10-13T12:27:23;15.00;99.90
58554;DHT22;48119;53.218;6.576;2022-10-13T12:29:49;15.00;99.90
58554;DHT22;48119;53.218;6.576;2022-10-13T12:32:23;15.00;99.90
58554;DHT22;48119;53.218;6.576;2022-10-13T12:34:49;15.00;99.90
58554;DHT22;48119;53.218;6.576;2022-10-13T12:37:27;15.10;99.90
58554;DHT22;48119;53.218;6.576;2022-10-13T12:39:56;15.10;99.90
58554;DHT22;48119;53.218;6.576;2022-10-13T12:42:30;15.10;99.90
58554;DHT22;48119;53.218;6.576;2022-10-13T12:45:00;15.10;99.90
58554;DHT22;48119;53.218;6.576;2022-10-13T12:47:46;15.10;99.90
58554;DHT22;48119;53.218;6.576;2022-10-13T12:53:36;15.10;99.90
58554;DHT22;48119;53.218;6.576;2022-10-13T12:55:57;15.20;99.90
58554;DHT22;48119;53.218;6.576;2022-10-13T12:58:31;15.20;99.90
58554;DHT22;48119;53.218;6.576;2022-10-13T13:03:28;15.20;99.90
58554;DHT22;48119;53.218;6.576;2022-10-13T13:06:20;15.20;99.90
58554;DHT22;48119;53.218;6.576;2022-10-13T13:11:37;15.20;99.90
58554;DHT22;48119;53.218;6.576;2022-10-13T13:14:41;15.20;99.90
58554;DHT22;48119;53.218;6.576;2022-10-13T13:19:38;15.20;99.90
58554;DHT22;48119;53.218;6.576;2022-10-13T13:22:05;15.20;99.90
58554;DHT22;48119;53.218;6.576;2022-10-13T13:24:32;15.20;99.90
58554;DHT22;48119;53.218;6.576;2022-10-13T13:26:58;15.20;99.90
58554;DHT22;48119;53.218;6.576;2022-10-13T13:29:24;15.20;99.90
58554;DHT22;48119;53.218;6.576;2022-10-13T13:31:49;15.20;99.90
58554;DHT22;48119;53.218;6.576;2022-10-13T13:34:16;15.30;99.90
58554;DHT22;48119;53.218;6.576;2022-10-13T13:36:42;15.30;99.90
58554;DHT22;48119;53.218;6.576;2022-10-13T13:39:14;15.30;99.90
58554;DHT22;48119;53.218;6.576;2022-10-13T13:41:41;15.30;99.90
58554;DHT22;48119;53.218;6.576;2022-10-13T13:44:06;15.20;99.90
58554;DHT22;48119;53.218;6.576;2022-10-13T13:46:32;15.20;99.90
58554;DHT22;48119;53.218;6.576;2022-10-13T13:48:59;15.30;99.90
58554;DHT22;48119;53.218;6.576;2022-10-13T13:51:26;15.30;99.90
58554;DHT22;48119;53.218;6.576;2022-10-13T13:53:52;15.30;99.90
58554;DHT22;48119;53.218;6.576;2022-10-13T13:56:21;15.30;99.90
58554;DHT22;48119;53.218;6.576;2022-10-13T13:58:47;15.30;99.90
58554;DHT22;48119;53.218;6.576;2022-10-13T14:01:13;15.30;99.90
58554;DHT22;48119;53.218;6.576;2022-10-13T14:03:40;15.40;99.90
58554;DHT22;48119;53.218;6.576;2022-10-13T14:06:06;15.30;99.90
58554;DHT22;48119;53.218;6.576;2022-10-13T14:08:33;15.30;99.90
58554;DHT22;48119;53.218;6.576;2022-10-13T14:11:00;15.30;99.90
58554;DHT22;48119;53.218;6.576;2022-10-13T14:13:29;15.30;99.90
58554;DHT22;48119;53.218;6.576;2022-10-13T14:15:56;15.30;99.90
58554;DHT22;48119;53.218;6.576;2022-10-13T14:18:23;15.30;99.90
58554;DHT22;48119;53.218;6.576;2022-10-13T14:20:49;15.40;99.90
58554;DHT22;48119;53.218;6.576;2022-10-13T14:23:14;15.30;99.90
58554;DHT22;48119;53.218;6.576;2022-10-13T14:25:40;15.40;99.90
58554;DHT22;48119;53.218;6.576;2022-10-13T14:28:06;15.40;99.90
58554;DHT22;48119;53.218;6.576;2022-10-13T14:30:32;15.40;99.90
58554;DHT22;48119;53.218;6.576;2022-10-13T14:32:57;15.40;99.90
58554;DHT22;48119;53.218;6.576;2022-10-13T14:35:23;15.50;99.90
58554;DHT22;48119;53.218;6.576;2022-10-13T14:37:49;15.40;99.90
58554;DHT22;48119;53.218;6.576;2022-10-13T14:40:15;15.40;99.90
58554;DHT22;48119;53.218;6.576;2022-10-13T14:42:41;15.40;99.90
58554;DHT22;48119;53.218;6.576;2022-10-13T14:45:07;15.40;99.90
58554;DHT22;48119;53.218;6.576;2022-10-13T14:47:33;15.40;99.90
58554;DHT22;48119;53.218;6.576;2022-10-13T14:49:59;15.40;99.90
58554;DHT22;48119;53.218;6.576;2022-10-13T14:52:26;15.40;99.90
58554;DHT22;48119;53.218;6.576;2022-10-13T14:54:52;15.40;99.90
58554;DHT22;48119;53.218;6.576;2022-10-13T14:57:18;15.40;99.90
58554;DHT22;48119;53.218;6.576;2022-10-13T14:59:45;15.40;99.90
58554;DHT22;48119;53.218;6.576;2022-10-13T15:02:11;15.40;99.90
58554;DHT22;48119;53.218;6.576;2022-10-13T15:04:37;15.40;99.90
58554;DHT22;48119;53.218;6.576;2022-10-13T15:07:03;15.40;99.90
58554;DHT22;48119;53.218;6.576;2022-10-13T15:09:29;15.40;99.90
58554;DHT22;48119;53.218;6.576;2022-10-13T15:11:55;15.40;99.90
58554;DHT22;48119;53.218;6.576;2022-10-13T15:14:21;15.40;99.90
58554;DHT22;48119;53.218;6.576;2022-10-13T15:16:46;15.40;99.90
58554;DHT22;48119;53.218;6.576;2022-10-13T15:19:12;15.40;99.90
58554;DHT22;48119;53.218;6.576;2022-10-13T15:21:39;15.40;99.90
58554;DHT22;48119;53.218;6.576;2022-10-13T15:24:05;15.40;99.90
58554;DHT22;48119;53.218;6.576;2022-10-13T15:26:31;15.40;99.90
58554;DHT22;48119;53.218;6.576;2022-10-13T15:28:58;15.50;99.90
58554;DHT22;48119;53.218;6.576;2022-10-13T15:31:24;15.40;99.90
58554;DHT22;48119;53.218;6.576;2022-10-13T15:33:51;15.40;99.90
58554;DHT22;48119;53.218;6.576;2022-10-13T15:36:18;15.40;99.90
58554;DHT22;48119;53.218;6.576;2022-10-13T15:38:45;15.40;99.90
58554;DHT22;48119;53.218;6.576;2022-10-13T15:41:11;15.40;99.90
58554;DHT22;48119;53.218;6.576;2022-10-13T15:43:37;15.40;99.90
58554;DHT22;48119;53.218;6.576;2022-10-13T15:46:06;15.40;99.90
58554;DHT22;48119;53.218;6.576;2022-10-13T15:48:32;15.40;99.90
58554;DHT22;48119;53.218;6.576;2022-10-13T15:50:58;15.40;99.90
58554;DHT22;48119;53.218;6.576;2022-10-13T15:53:24;15.40;99.90
58554;DHT22;48119;53.218;6.576;2022-10-13T15:55:50;15.40;99.90
58554;DHT22;48119;53.218;6.576;2022-10-13T15:58:16;15.40;99.90
58554;DHT22;48119;53.218;6.576;2022-10-13T16:00:42;15.40;99.90
58554;DHT22;48119;53.218;6.576;2022-10-13T16:03:16;15.40;99.90
58554;DHT22;48119;53.218;6.576;2022-10-13T16:05:43;15.50;99.90
58554;DHT22;48119;53.218;6.576;2022-10-13T16:08:10;15.40;99.90
58554;DHT22;48119;53.218;6.576;2022-10-13T16:10:42;15.40;99.90
58554;DHT22;48119;53.218;6.576;2022-10-13T16:13:12;15.40;99.90
58554;DHT22;48119;53.218;6.576;2022-10-13T16:15:38;15.40;99.90
58554;DHT22;48119;53.218;6.576;2022-10-13T16:18:04;15.40;99.90
58554;DHT22;48119;53.218;6.576;2022-10-13T16:20:31;15.40;99.90
58554;DHT22;48119;53.218;6.576;2022-10-13T16:23:00;15.40;99.90
58554;DHT22;48119;53.218;6.576;2022-10-13T16:25:27;15.50;99.90
58554;DHT22;48119;53.218;6.576;2022-10-13T16:27:53;15.50;99.90
58554;DHT22;48119;53.218;6.576;2022-10-13T16:30:19;15.50;99.90
58554;DHT22;48119;53.218;6.576;2022-10-13T16:32:45;15.50;99.90
58554;DHT22;48119;53.218;6.576;2022-10-13T16:35:11;15.50;99.90
58554;DHT22;48119;53.218;6.576;2022-10-13T16:37:37;15.40;99.90
58554;DHT22;48119;53.218;6.576;2022-10-13T16:40:04;15.40;99.90
58554;DHT22;48119;53.218;6.576;2022-10-13T16:42:31;15.40;99.90
58554;DHT22;48119;53.218;6.576;2022-10-13T16:44:57;15.50;99.90
58554;DHT22;48119;53.218;6.576;2022-10-13T16:47:22;15.40;99.90
58554;DHT22;48119;53.218;6.576;2022-10-13T16:49:48;15.40;99.90
58554;DHT22;48119;53.218;6.576;2022-10-13T16:52:14;15.40;99.90
58554;DHT22;48119;53.218;6.576;2022-10-13T16:54:40;15.40;99.90
58554;DHT22;48119;53.218;6.576;2022-10-13T16:57:05;15.30;99.90
58554;DHT22;48119;53.218;6.576;2022-10-13T16:59:31;15.30;99.90
58554;DHT22;48119;53.218;6.576;2022-10-13T17:01:57;15.30;99.90
58554;DHT22;48119;53.218;6.576;2022-10-13T17:04:23;15.30;99.90
58554;DHT22;48119;53.218;6.576;2022-10-13T17:06:49;15.30;99.90
58554;DHT22;48119;53.218;6.576;2022-10-13T17:09:15;15.30;99.90
58554;DHT22;48119;53.218;6.576;2022-10-13T17:11:41;15.30;99.90
58554;DHT22;48119;53.218;6.576;2022-10-13T17:14:08;15.30;99.90
58554;DHT22;48119;53.218;6.576;2022-10-13T17:16:34;15.30;99.90
58554;DHT22;48119;53.218;6.576;2022-10-13T17:19:01;15.30;99.90
58554;DHT22;48119;53.218;6.576;2022-10-13T17:21:27;15.30;99.90
58554;DHT22;48119;53.218;6.576;2022-10-13T17:23:54;15.30;99.90
58554;DHT22;48119;53.218;6.576;2022-10-13T17:26:20;15.30;99.90
58554;DHT22;48119;53.218;6.576;2022-10-13T17:28:46;15.30;99.90
58554;DHT22;48119;53.218;6.576;2022-10-13T17:31:17;15.30;99.90
58554;DHT22;48119;53.218;6.576;2022-10-13T17:33:44;15.30;99.90
58554;DHT22;48119;53.218;6.576;2022-10-13T17:36:14;15.30;99.90
58554;DHT22;48119;53.218;6.576;2022-10-13T17:38:42;15.30;99.90
58554;DHT22;48119;53.218;6.576;2022-10-13T17:41:10;15.30;99.90